Hlavní strana
METAR-TAF:

METAR-TAF

Letiště :

Georgetown, Ascension

zeměpisná šířka: 07-58S, zeměpisná délka: 014-24W, výška: 86 m

Aktuální stav počasí

Zpráva byla vytvořena před 33 minutami, v 14:50 UTC
Jihojihovýchodní vítr 15 kt
Teplota 28°C
Vlhkost vzduchu 74%
Tlak 1012 hPa
Viditelnost 10 km a více
Skoro jasno ve výšce 1700 ft
Polojasno ve výšce 4200 ft

METAR: FHAW 181450Z 15015KT 9999 FEW017 SCT042 28/23 Q1012 NOSIG RMK BLU BLU

Čas: 15:23 (15:23 UTC)

Předpověď počasí

Zpráva byla vytvořena před 1 hodinou a 53 minutami, v 13:30 UTC
Předpověď platná od 18 v 15 UTC do 19 v 09 UTC
Jihovýchodní vítr 14 kt
Viditelnost 10 km a více
Skoro jasno ve výšce 1800 ft
Polojasno ve výšce 4000 ft
Pravděpodobnost 30% :
Dočasný
od 18 v 15 UTC do 19 v 09 UTC
Viditelnost: 7000 m
Polojasno ve výšce 1500 ft
slabé dešťové přeháňky

TAF: FHAW 181330Z 1815/1909 14014KT 9999 FEW018 SCT040 PROB30 TEMPO 1815/1909 7000 -SHRA SCT015

Stav a předpovědi počasí z více než 4 000 letišť (zprávy METAR a TAF).

Červené a žluté tečky na mapě představují dostupné meteorologické stanice.

Když kurzor umístíte na tečku, zobrazí se název stanice.

Pak kliknutím zobrazíte stav a předpověď počasí.

Chcete-li změnit mapu, kliknutím na zelené tlačítko se znaménkem +mapu přiblížíte, kliknutím na zelené tlačítko se znaménkem – mapu oddálíte a kliknutím na zelené šipky přejdete na sousední mapy.


METAR-TAF: